Time;durP1;ratioP1;P1;durP2;ratioP2;P2;SDS_P1;SDS_P2;PMS_P1;PMS_P2;Temp;Humidity;BMP_temperature;BMP_pressure;BME280_temperature;BME280_humidity;BME280_pressure;Samples;Min_cycle;Max_cycle;Signal;HPM_P1;HPM_P2
2022/11/12 00:01:07;;;;;;;9.65;5.30;;;;;;;;;;4988340;28;20041;-62
2022/11/12 00:03:33;;;;;;;10.00;5.28;;;;;;;;;;4980826;28;20026;-62
2022/11/12 00:05:58;;;;;;;9.20;5.35;;;;;;;;;;4972145;28;20266;-62
2022/11/12 00:08:24;;;;;;;8.65;5.10;;;;;;;;;;4972088;28;20058;-63
2022/11/12 00:10:49;;;;;;;9.50;4.90;;;;;;;;;;4980086;28;20035;-63
2022/11/12 00:13:14;;;;;;;6.97;4.35;;;;;;;;;;4988545;28;20034;-63
2022/11/12 00:15:40;;;;;;;12.05;5.90;;;;;;;;;;4980079;28;20030;-62
2022/11/12 00:18:06;;;;;;;8.40;5.20;;;;;;;;;;4973346;28;20173;-62
2022/11/12 00:20:32;;;;;;;9.02;4.78;;;;;;;;;;4973559;28;20139;-63
2022/11/12 00:22:57;;;;;;;9.35;5.00;;;;;;;;;;4977745;28;20034;-62
2022/11/12 00:25:22;;;;;;;8.50;4.88;;;;;;;;;;4976703;28;20388;-62
2022/11/12 00:27:48;;;;;;;7.72;4.60;;;;;;;;;;4977023;28;20030;-62
2022/11/12 00:30:13;;;;;;;8.93;4.75;;;;;;;;;;4977350;28;20039;-62
2022/11/12 00:32:39;;;;;;;8.95;4.72;;;;;;;;;;4973921;28;20050;-62
2022/11/12 00:35:05;;;;;;;7.75;4.55;;;;;;;;;;4978493;28;20513;-62
2022/11/12 00:37:31;;;;;;;10.43;4.32;;;;;;;;;;4970496;28;20034;-62
2022/11/12 00:39:56;;;;;;;8.60;5.07;;;;;;;;;;4972082;28;20030;-62
2022/11/12 00:42:22;;;;;;;9.00;4.68;;;;;;;;;;4974463;28;20038;-62
2022/11/12 00:44:48;;;;;;;6.13;4.35;;;;;;;;;;4977558;28;20035;-62
2022/11/12 00:47:14;;;;;;;10.45;4.25;;;;;;;;;;4971328;28;20058;-62
2022/11/12 00:49:40;;;;;;;8.63;4.80;;;;;;;;;;4971252;28;20038;-62
2022/11/12 00:52:05;;;;;;;9.27;4.85;;;;;;;;;;4982776;28;20061;-61
2022/11/12 00:54:31;;;;;;;8.20;4.50;;;;;;;;;;4976500;28;20034;-61
2022/11/12 00:56:56;;;;;;;8.00;4.63;;;;;;;;;;4970263;28;20031;-62
2022/11/12 00:59:21;;;;;;;9.20;4.85;;;;;;;;;;4971086;28;20399;-62
2022/11/12 01:01:47;;;;;;;8.65;4.55;;;;;;;;;;4974408;28;20083;-62
2022/11/12 01:04:12;;;;;;;7.57;4.63;;;;;;;;;;4985573;28;20030;-61
2022/11/12 01:06:40;;;;;;;10.10;4.78;;;;;;;;;;4978093;28;20070;-62
2022/11/12 01:09:06;;;;;;;8.50;4.63;;;;;;;;;;4980290;28;20038;-61
2022/11/12 01:11:31;;;;;;;7.55;4.28;;;;;;;;;;4971493;28;20034;-62
2022/11/12 01:14:05;;;;;;;7.75;4.57;;;;;;;;;;4971081;28;20649;-62
2022/11/12 01:16:35;;;;;;;8.40;4.60;;;;;;;;;;4972063;28;20121;-62
2022/11/12 01:19:05;;;;;;;7.35;4.55;;;;;;;;;;4985497;28;20042;-62
2022/11/12 01:21:31;;;;;;;11.93;4.80;;;;;;;;;;4988103;28;20471;-61
2022/11/12 01:23:59;;;;;;;8.25;4.75;;;;;;;;;;4974414;28;20341;-61
2022/11/12 01:26:27;;;;;;;11.35;5.57;;;;;;;;;;4985293;28;20043;-61
2022/11/12 01:28:53;;;;;;;8.43;5.13;;;;;;;;;;4988236;28;20395;-61
2022/11/12 01:31:31;;;;;;;10.18;5.35;;;;;;;;;;4971423;28;20601;-61
2022/11/12 01:34:03;;;;;;;9.45;5.78;;;;;;;;;;4975139;28;20034;-62
2022/11/12 01:36:37;;;;;;;11.27;5.65;;;;;;;;;;4990808;28;20019;-61
2022/11/12 01:39:05;;;;;;;11.02;5.63;;;;;;;;;;4991293;28;20035;-61
2022/11/12 01:41:32;;;;;;;11.75;5.93;;;;;;;;;;4979126;28;20100;-61
2022/11/12 01:44:19;;;;;;;9.48;5.65;;;;;;;;;;4981458;28;20484;-63
2022/11/12 01:46:59;;;;;;;8.75;5.50;;;;;;;;;;4971130;28;20111;-62
2022/11/12 01:49:37;;;;;;;10.80;5.60;;;;;;;;;;4976782;28;20058;-62
2022/11/12 01:52:17;;;;;;;8.60;5.45;;;;;;;;;;4986189;28;20039;-62
2022/11/12 01:54:48;;;;;;;9.90;4.93;;;;;;;;;;4971577;28;20376;-61
2022/11/12 01:57:17;;;;;;;8.68;4.95;;;;;;;;;;4975411;28;20097;-61
2022/11/12 01:59:46;;;;;;;8.85;5.13;;;;;;;;;;4979838;28;20117;-62
2022/11/12 02:02:11;;;;;;;8.95;4.82;;;;;;;;;;4983523;28;20111;-62
2022/11/12 02:04:38;;;;;;;8.50;5.00;;;;;;;;;;4982865;28;20118;-63
2022/11/12 02:07:05;;;;;;;7.75;4.50;;;;;;;;;;4978515;28;20034;-62
2022/11/12 02:09:32;;;;;;;8.60;4.40;;;;;;;;;;4977458;28;20035;-62
2022/11/12 02:11:59;;;;;;;7.32;4.57;;;;;;;;;;4973906;28;20098;-61
2022/11/12 02:14:24;;;;;;;7.75;4.53;;;;;;;;;;4976345;28;20459;-61
2022/11/12 02:16:50;;;;;;;8.77;4.90;;;;;;;;;;4981223;28;20065;-62
2022/11/12 02:19:16;;;;;;;7.05;4.30;;;;;;;;;;4975583;28;20075;-61
2022/11/12 02:21:42;;;;;;;7.40;4.43;;;;;;;;;;4975014;28;20113;-62
2022/11/12 02:24:10;;;;;;;8.35;4.50;;;;;;;;;;4984210;28;20114;-61
2022/11/12 02:26:40;;;;;;;7.70;4.47;;;;;;;;;;4992315;28;20391;-62
2022/11/12 02:29:05;;;;;;;8.85;4.88;;;;;;;;;;4987125;28;20357;-61
2022/11/12 02:31:31;;;;;;;8.35;4.53;;;;;;;;;;4982256;28;20054;-61
2022/11/12 02:33:56;;;;;;;9.90;4.70;;;;;;;;;;4988440;28;20117;-62
2022/11/12 02:36:22;;;;;;;7.47;4.72;;;;;;;;;;5025111;28;20061;-62
2022/11/12 02:38:47;;;;;;;8.10;4.43;;;;;;;;;;4990691;28;20476;-62
2022/11/12 02:41:13;;;;;;;9.93;4.82;;;;;;;;;;4975398;28;20483;-62
2022/11/12 02:43:39;;;;;;;8.00;4.60;;;;;;;;;;4975239;28;20030;-61
2022/11/12 02:46:05;;;;;;;12.18;4.63;;;;;;;;;;4984237;28;20121;-62
2022/11/12 02:48:30;;;;;;;8.50;4.75;;;;;;;;;;4988918;28;20489;-62
2022/11/12 02:50:56;;;;;;;8.20;4.75;;;;;;;;;;4975771;28;20030;-62
2022/11/12 02:53:21;;;;;;;7.85;5.00;;;;;;;;;;4977202;28;20037;-62
2022/11/12 02:55:47;;;;;;;9.32;5.07;;;;;;;;;;4976961;28;20038;-63
2022/11/12 02:58:12;;;;;;;9.00;4.95;;;;;;;;;;4983452;28;20050;-61
2022/11/12 03:00:37;;;;;;;9.57;5.75;;;;;;;;;;4987487;28;20501;-61
2022/11/12 03:03:03;;;;;;;8.63;5.05;;;;;;;;;;4979125;28;20027;-62
2022/11/12 03:05:30;;;;;;;9.55;5.05;;;;;;;;;;4976367;28;20039;-62
2022/11/12 03:07:57;;;;;;;11.10;5.68;;;;;;;;;;4972142;28;20082;-62
2022/11/12 03:10:24;;;;;;;9.57;5.47;;;;;;;;;;4977953;28;20034;-63
2022/11/12 03:12:50;;;;;;;8.55;5.07;;;;;;;;;;4991930;28;20121;-62
2022/11/12 03:15:16;;;;;;;10.13;4.72;;;;;;;;;;4979895;28;20121;-67
2022/11/12 03:17:42;;;;;;;8.20;5.28;;;;;;;;;;4973185;28;20082;-63
2022/11/12 03:20:08;;;;;;;8.88;5.38;;;;;;;;;;4997839;28;20030;-63
2022/11/12 03:22:34;;;;;;;10.90;5.72;;;;;;;;;;4994436;28;20399;-62
2022/11/12 03:24:59;;;;;;;9.38;5.63;;;;;;;;;;4971397;28;20487;-63
2022/11/12 03:27:24;;;;;;;9.82;5.10;;;;;;;;;;4986112;28;20085;-64
2022/11/12 03:29:50;;;;;;;8.70;5.15;;;;;;;;;;4984606;28;20092;-63
2022/11/12 03:32:15;;;;;;;9.85;5.35;;;;;;;;;;4979078;28;20467;-63
2022/11/12 03:34:40;;;;;;;11.07;5.30;;;;;;;;;;4975712;28;20061;-62
2022/11/12 03:37:08;;;;;;;9.23;5.28;;;;;;;;;;4972820;28;20078;-62
2022/11/12 03:39:34;;;;;;;10.57;6.07;;;;;;;;;;4982023;28;20045;-62
2022/11/12 03:41:59;;;;;;;9.80;5.93;;;;;;;;;;4982427;28;20034;-62
2022/11/12 03:44:24;;;;;;;12.05;5.97;;;;;;;;;;4979048;28;20117;-62
2022/11/12 03:46:50;;;;;;;14.27;6.10;;;;;;;;;;4973477;28;20469;-62
2022/11/12 03:49:15;;;;;;;12.30;6.65;;;;;;;;;;4982142;28;20039;-62
2022/11/12 03:51:40;;;;;;;10.10;6.53;;;;;;;;;;4992662;28;20058;-62
2022/11/12 03:54:06;;;;;;;14.32;6.53;;;;;;;;;;4989272;28;20141;-61
2022/11/12 03:56:31;;;;;;;10.65;6.30;;;;;;;;;;4992247;28;20030;-62
2022/11/12 03:58:57;;;;;;;13.20;7.00;;;;;;;;;;4982245;28;20391;-61
2022/11/12 04:01:22;;;;;;;11.52;6.68;;;;;;;;;;4977955;28;20075;-61
2022/11/12 04:03:47;;;;;;;12.30;6.75;;;;;;;;;;4982686;28;20046;-62
2022/11/12 04:08:57;;;;;;;10.65;6.18;;;;;;;;;;4973072;28;20549;-62
2022/11/12 04:11:22;;;;;;;11.30;6.45;;;;;;;;;;4984521;28;20031;-62
2022/11/12 04:13:48;;;;;;;13.82;6.88;;;;;;;;;;4987997;28;20090;-61
2022/11/12 04:22:10;;;;;;;11.07;6.22;;;;;;;;;;4988865;28;20046;-61
2022/11/12 04:27:30;;;;;;;9.98;6.07;;;;;;;;;;4977554;28;20502;-61
2022/11/12 04:30:15;;;;;;;11.38;6.20;;;;;;;;;;4974508;28;20033;-62
2022/11/12 04:33:00;;;;;;;9.65;5.88;;;;;;;;;;4978596;28;20033;-62
2022/11/12 04:35:26;;;;;;;11.45;5.93;;;;;;;;;;4990342;28;20065;-62
2022/11/12 04:37:52;;;;;;;7.45;5.15;;;;;;;;;;4975906;28;20034;-62
2022/11/12 04:46:01;;;;;;;9.80;5.10;;;;;;;;;;4975486;28;20057;-61
2022/11/12 04:48:27;;;;;;;9.35;5.35;;;;;;;;;;4976246;28;20051;-61
2022/11/12 04:50:55;;;;;;;8.18;5.07;;;;;;;;;;4981587;28;20386;-61
2022/11/12 04:53:21;;;;;;;7.78;4.90;;;;;;;;;;4987671;28;20042;-61
2022/11/12 04:55:51;;;;;;;8.88;5.18;;;;;;;;;;4990290;28;20030;-61
2022/11/12 04:58:16;;;;;;;10.50;6.07;;;;;;;;;;4971064;28;20093;-61
2022/11/12 05:00:42;;;;;;;8.55;5.15;;;;;;;;;;4990529;28;20034;-62
2022/11/12 05:03:07;;;;;;;8.98;5.43;;;;;;;;;;4973567;28;20049;-62
2022/11/12 05:05:33;;;;;;;9.88;5.38;;;;;;;;;;4972031;28;20058;-62
2022/11/12 05:07:59;;;;;;;8.95;4.85;;;;;;;;;;4978517;28;20035;-61
2022/11/12 05:10:25;;;;;;;8.40;4.70;;;;;;;;;;4971851;28;20102;-61
2022/11/12 05:12:50;;;;;;;8.68;4.70;;;;;;;;;;4971085;28;20117;-63
2022/11/12 05:15:17;;;;;;;7.75;4.55;;;;;;;;;;4984489;28;20022;-61
2022/11/12 05:17:42;;;;;;;8.73;5.30;;;;;;;;;;4983067;28;20038;-61
2022/11/12 05:20:10;;;;;;;11.48;5.88;;;;;;;;;;4973761;28;20030;-61
2022/11/12 05:22:36;;;;;;;10.65;5.22;;;;;;;;;;4984847;28;20433;-61
2022/11/12 05:25:01;;;;;;;8.85;5.07;;;;;;;;;;4973911;28;20134;-61
2022/11/12 05:27:27;;;;;;;8.63;5.25;;;;;;;;;;4969946;28;20031;-62
2022/11/12 05:29:52;;;;;;;11.65;5.25;;;;;;;;;;4971083;28;20041;-63
2022/11/12 05:32:18;;;;;;;7.95;4.95;;;;;;;;;;4970627;28;20030;-62
2022/11/12 05:34:44;;;;;;;9.90;4.80;;;;;;;;;;4973420;28;20046;-63
2022/11/12 05:37:11;;;;;;;8.02;4.90;;;;;;;;;;4976648;28;20039;-62
2022/11/12 05:39:36;;;;;;;10.90;5.25;;;;;;;;;;4978439;28;20035;-62
2022/11/12 05:42:02;;;;;;;12.73;6.18;;;;;;;;;;4985106;28;20036;-62
2022/11/12 05:44:28;;;;;;;8.07;5.22;;;;;;;;;;4975334;28;20034;-62
2022/11/12 05:46:54;;;;;;;10.13;5.05;;;;;;;;;;4988845;28;20456;-62
2022/11/12 05:49:19;;;;;;;10.45;5.25;;;;;;;;;;4989397;28;20040;-62
2022/11/12 05:51:44;;;;;;;9.35;5.32;;;;;;;;;;4991828;28;20031;-61
2022/11/12 05:54:10;;;;;;;7.82;4.78;;;;;;;;;;4989359;28;20510;-61
2022/11/12 05:56:36;;;;;;;7.75;4.30;;;;;;;;;;4987281;28;20057;-61
2022/11/12 05:59:04;;;;;;;6.38;4.40;;;;;;;;;;4976715;28;20122;-61
2022/11/12 06:01:29;;;;;;;7.50;4.40;;;;;;;;;;4979820;28;20047;-61
2022/11/12 06:03:55;;;;;;;9.57;4.97;;;;;;;;;;4974790;28;20241;-62
2022/11/12 06:06:20;;;;;;;8.90;5.13;;;;;;;;;;4975557;28;20435;-62
2022/11/12 06:08:46;;;;;;;8.38;5.07;;;;;;;;;;4979406;28;20034;-62
2022/11/12 06:11:11;;;;;;;7.45;4.80;;;;;;;;;;4987723;28;20117;-61
2022/11/12 06:13:36;;;;;;;9.50;4.90;;;;;;;;;;4988315;28;20041;-61
2022/11/12 06:16:02;;;;;;;7.18;4.80;;;;;;;;;;4987572;28;20042;-61
2022/11/12 06:18:27;;;;;;;9.32;4.75;;;;;;;;;;4989498;28;20514;-64
2022/11/12 06:23:37;;;;;;;10.18;4.55;;;;;;;;;;4995548;28;20034;-63
2022/11/12 06:26:03;;;;;;;9.23;4.78;;;;;;;;;;4986098;28;20030;-63
2022/11/12 06:28:28;;;;;;;7.85;4.60;;;;;;;;;;4979382;28;20464;-63
2022/11/12 06:30:54;;;;;;;11.73;5.20;;;;;;;;;;4991506;28;20073;-63
2022/11/12 06:33:20;;;;;;;10.68;4.95;;;;;;;;;;4976036;28;20042;-63
2022/11/12 06:35:45;;;;;;;8.20;4.88;;;;;;;;;;4993226;28;20382;-64
2022/11/12 06:38:10;;;;;;;8.70;5.32;;;;;;;;;;4987512;28;20039;-63
2022/11/12 06:40:36;;;;;;;9.07;5.05;;;;;;;;;;4975722;28;20122;-64
2022/11/12 06:43:01;;;;;;;7.93;4.45;;;;;;;;;;4992583;28;20030;-63
2022/11/12 06:45:26;;;;;;;7.47;4.80;;;;;;;;;;4994099;28;20077;-63
2022/11/12 06:47:57;;;;;;;8.98;4.85;;;;;;;;;;4991116;28;20042;-63
2022/11/12 06:50:22;;;;;;;10.10;5.07;;;;;;;;;;4974877;28;20039;-63
2022/11/12 06:52:47;;;;;;;12.88;5.63;;;;;;;;;;4974127;28;20043;-62
2022/11/12 06:55:13;;;;;;;9.38;5.43;;;;;;;;;;5002003;28;20049;-63
2022/11/12 06:57:38;;;;;;;12.65;5.82;;;;;;;;;;4986698;28;20431;-64
2022/11/12 07:00:04;;;;;;;11.73;5.47;;;;;;;;;;4987185;28;20042;-63
2022/11/12 07:02:29;;;;;;;9.95;5.60;;;;;;;;;;4979939;28;20039;-63
2022/11/12 07:04:55;;;;;;;10.00;5.63;;;;;;;;;;4973319;28;20900;-64
2022/11/12 07:07:20;;;;;;;12.30;6.15;;;;;;;;;;4973552;28;20085;-64
2022/11/12 07:09:45;;;;;;;11.82;5.47;;;;;;;;;;4974567;28;20030;-63
2022/11/12 07:12:11;;;;;;;10.38;5.40;;;;;;;;;;4977791;28;20034;-62
2022/11/12 07:14:36;;;;;;;9.50;5.13;;;;;;;;;;4992553;28;20540;-63
2022/11/12 07:17:01;;;;;;;9.20;5.53;;;;;;;;;;4989364;28;20466;-63
2022/11/12 07:19:27;;;;;;;8.20;5.38;;;;;;;;;;4991785;28;20042;-64
2022/11/12 07:21:52;;;;;;;11.30;5.80;;;;;;;;;;4975797;28;20027;-64
2022/11/12 07:24:18;;;;;;;11.00;6.15;;;;;;;;;;4984929;28;20033;-64
2022/11/12 07:26:43;;;;;;;10.15;6.07;;;;;;;;;;5040324;28;20038;-64
2022/11/12 07:29:08;;;;;;;9.88;5.75;;;;;;;;;;4975682;28;20482;-64
2022/11/12 07:31:34;;;;;;;12.80;6.30;;;;;;;;;;4983911;28;20121;-64
2022/11/12 07:33:59;;;;;;;11.10;6.55;;;;;;;;;;4981195;28;20406;-64
2022/11/12 07:36:25;;;;;;;10.93;6.00;;;;;;;;;;4974082;28;20043;-64
2022/11/12 07:38:52;;;;;;;13.07;5.63;;;;;;;;;;4986708;28;20045;-63
2022/11/12 07:41:22;;;;;;;11.57;6.53;;;;;;;;;;4974224;28;20403;-63
2022/11/12 07:43:50;;;;;;;11.75;6.07;;;;;;;;;;4973950;28;20031;-64
2022/11/12 07:46:21;;;;;;;9.95;6.20;;;;;;;;;;4972403;28;20031;-64
2022/11/12 07:48:47;;;;;;;11.25;6.28;;;;;;;;;;4975161;28;20125;-64
2022/11/12 07:51:17;;;;;;;11.73;6.50;;;;;;;;;;4973116;28;20354;-64
2022/11/12 07:53:43;;;;;;;12.45;6.30;;;;;;;;;;4974166;28;20035;-64
2022/11/12 07:56:17;;;;;;;12.98;6.75;;;;;;;;;;4984547;28;20117;-63
2022/11/12 07:58:43;;;;;;;12.38;6.68;;;;;;;;;;4974871;28;20053;-64
2022/11/12 08:01:15;;;;;;;12.30;7.22;;;;;;;;;;4987750;28;20037;-64
2022/11/12 08:03:40;;;;;;;12.18;7.50;;;;;;;;;;4979351;28;20436;-63
2022/11/12 08:06:06;;;;;;;13.45;8.07;;;;;;;;;;4972455;28;20122;-63
2022/11/12 08:08:31;;;;;;;10.82;7.43;;;;;;;;;;4972792;28;20439;-63
2022/11/12 08:10:58;;;;;;;12.02;7.47;;;;;;;;;;4973038;28;20546;-62
2022/11/12 08:13:23;;;;;;;13.02;7.78;;;;;;;;;;4975662;28;20026;-62
2022/11/12 08:15:49;;;;;;;13.13;7.47;;;;;;;;;;4989805;28;20093;-63
2022/11/12 08:18:15;;;;;;;12.13;7.38;;;;;;;;;;4983321;28;20305;-63
2022/11/12 08:20:41;;;;;;;13.23;8.27;;;;;;;;;;4981898;28;20492;-63
2022/11/12 08:23:06;;;;;;;12.45;7.43;;;;;;;;;;4975272;28;20419;-63
2022/11/12 08:25:32;;;;;;;12.43;7.18;;;;;;;;;;4985631;28;20062;-62
2022/11/12 08:27:58;;;;;;;12.70;7.22;;;;;;;;;;4972015;28;20375;-63
2022/11/12 08:30:28;;;;;;;14.68;7.20;;;;;;;;;;4992564;28;20042;-63
2022/11/12 08:33:02;;;;;;;11.32;6.53;;;;;;;;;;4975821;28;20062;-63
2022/11/12 08:35:29;;;;;;;10.93;5.90;;;;;;;;;;4992836;28;20372;-63
2022/11/12 08:37:58;;;;;;;8.98;5.95;;;;;;;;;;4975133;28;20057;-63
2022/11/12 08:40:24;;;;;;;12.35;6.50;;;;;;;;;;4979873;28;20117;-63
2022/11/12 08:42:57;;;;;;;10.48;6.47;;;;;;;;;;4978338;28;20031;-64
2022/11/12 08:45:22;;;;;;;12.15;5.93;;;;;;;;;;4986293;28;20054;-63
2022/11/12 08:47:47;;;;;;;10.98;5.93;;;;;;;;;;4987170;28;20097;-62
2022/11/12 08:50:13;;;;;;;8.93;5.63;;;;;;;;;;4972442;28;20045;-63
2022/11/12 08:52:38;;;;;;;11.27;6.38;;;;;;;;;;4979747;28;20526;-63
2022/11/12 08:55:04;;;;;;;10.57;6.22;;;;;;;;;;4973382;28;20030;-63
2022/11/12 08:57:29;;;;;;;10.02;6.45;;;;;;;;;;4976181;28;20050;-63
2022/11/12 08:59:55;;;;;;;11.98;6.65;;;;;;;;;;4990448;28;20390;-64
2022/11/12 09:02:21;;;;;;;11.07;7.00;;;;;;;;;;4985477;28;20072;-64
2022/11/12 09:04:46;;;;;;;10.20;6.75;;;;;;;;;;4993351;28;20415;-66
2022/11/12 09:07:11;;;;;;;9.95;6.88;;;;;;;;;;4976737;28;20744;-63
2022/11/12 09:09:37;;;;;;;11.07;7.03;;;;;;;;;;4970995;28;20117;-63
2022/11/12 09:12:02;;;;;;;12.43;6.32;;;;;;;;;;4986394;28;20030;-63
2022/11/12 09:14:27;;;;;;;12.10;6.65;;;;;;;;;;4990526;28;20365;-64
2022/11/12 09:16:53;;;;;;;9.23;6.30;;;;;;;;;;4973192;28;20035;-64
2022/11/12 09:19:18;;;;;;;9.05;6.15;;;;;;;;;;4985755;28;20042;-63
2022/11/12 09:21:44;;;;;;;8.70;6.10;;;;;;;;;;4992599;28;20034;-64
2022/11/12 09:24:09;;;;;;;9.75;6.10;;;;;;;;;;4983279;28;20451;-64
2022/11/12 09:26:34;;;;;;;7.55;5.72;;;;;;;;;;4990181;28;20035;-65
2022/11/12 09:29:00;;;;;;;10.30;5.95;;;;;;;;;;4990502;28;20070;-64
2022/11/12 09:31:25;;;;;;;7.80;5.57;;;;;;;;;;4992083;28;20034;-64
2022/11/12 09:33:51;;;;;;;11.00;6.00;;;;;;;;;;4990387;28;20042;-65
2022/11/12 09:36:16;;;;;;;8.38;5.18;;;;;;;;;;4989668;28;20038;-65
2022/11/12 09:38:42;;;;;;;9.75;6.05;;;;;;;;;;4987775;28;20038;-65
2022/11/12 09:41:17;;;;;;;12.35;8.00;;;;;;;;;;4991032;28;20034;-64
2022/11/12 09:43:50;;;;;;;11.18;7.32;;;;;;;;;;4991886;28;20022;-64
2022/11/12 09:46:39;;;;;;;10.15;6.68;;;;;;;;;;4990385;28;20062;-63
2022/11/12 09:49:11;;;;;;;12.00;8.43;;;;;;;;;;4990521;28;20121;-64
2022/11/12 09:51:51;;;;;;;13.38;6.85;;;;;;;;;;4990969;28;20023;-65
2022/11/12 09:54:22;;;;;;;8.95;5.85;;;;;;;;;;4990224;28;20810;-64
2022/11/12 09:56:48;;;;;;;9.57;5.25;;;;;;;;;;4991132;28;20065;-64
2022/11/12 09:59:14;;;;;;;6.75;4.32;;;;;;;;;;4990518;28;20046;-63
2022/11/12 10:01:44;;;;;;;6.55;4.38;;;;;;;;;;4988170;28;20030;-63
2022/11/12 10:04:37;;;;;;;6.97;4.43;;;;;;;;;;4990987;28;20022;-64
2022/11/12 10:07:41;;;;;;;8.85;4.47;;;;;;;;;;4990538;28;20081;-64
2022/11/12 10:10:29;;;;;;;7.13;4.25;;;;;;;;;;4989826;28;20384;-64
2022/11/12 10:13:23;;;;;;;7.93;4.72;;;;;;;;;;4991512;28;20030;-63
2022/11/12 10:19:14;;;;;;;7.65;4.53;;;;;;;;;;4972136;28;20491;-64
2022/11/12 10:21:48;;;;;;;6.88;4.35;;;;;;;;;;4990700;28;20065;-64
2022/11/12 10:24:13;;;;;;;8.40;5.32;;;;;;;;;;4993458;28;20379;-63
2022/11/12 10:26:39;;;;;;;7.97;4.90;;;;;;;;;;4993664;28;20537;-63
2022/11/12 10:29:23;;;;;;;8.10;4.65;;;;;;;;;;4979299;28;20031;-63
2022/11/12 10:31:49;;;;;;;9.73;4.68;;;;;;;;;;4975710;28;20102;-63
2022/11/12 10:34:19;;;;;;;7.60;4.25;;;;;;;;;;4987710;28;20118;-63
2022/11/12 10:36:52;;;;;;;7.32;4.25;;;;;;;;;;4993763;28;20034;-63
2022/11/12 10:39:33;;;;;;;7.93;3.95;;;;;;;;;;4992833;28;20410;-63
2022/11/12 10:42:08;;;;;;;7.55;3.80;;;;;;;;;;4988999;28;20414;-63
2022/11/12 10:44:35;;;;;;;6.60;4.00;;;;;;;;;;4978266;28;20049;-63
2022/11/12 10:47:24;;;;;;;8.05;4.32;;;;;;;;;;4987942;28;20041;-63
2022/11/12 10:50:08;;;;;;;7.82;4.20;;;;;;;;;;4993838;28;20038;-63
2022/11/12 10:52:34;;;;;;;10.48;4.80;;;;;;;;;;4994640;28;20093;-63
2022/11/12 10:55:21;;;;;;;7.15;4.45;;;;;;;;;;4993752;28;20050;-63
2022/11/12 10:58:11;;;;;;;6.47;4.07;;;;;;;;;;4982564;28;20051;-64
2022/11/12 11:00:50;;;;;;;7.15;4.30;;;;;;;;;;4973810;28;20030;-63
2022/11/12 11:03:20;;;;;;;6.95;4.60;;;;;;;;;;4990017;28;20034;-64
2022/11/12 11:05:54;;;;;;;7.85;4.43;;;;;;;;;;4991957;28;20041;-63
2022/11/12 11:08:37;;;;;;;8.25;4.50;;;;;;;;;;4991049;28;20384;-64
2022/11/12 11:11:30;;;;;;;7.70;4.55;;;;;;;;;;4991762;28;20038;-63
2022/11/12 11:14:16;;;;;;;9.32;4.10;;;;;;;;;;4993779;28;20040;-64
2022/11/12 11:16:51;;;;;;;10.73;6.13;;;;;;;;;;4989663;28;20042;-63
2022/11/12 11:19:16;;;;;;;8.20;4.75;;;;;;;;;;4992218;28;20471;-63
2022/11/12 11:21:47;;;;;;;6.30;3.83;;;;;;;;;;4994053;28;20121;-64
2022/11/12 11:24:37;;;;;;;7.97;3.78;;;;;;;;;;4981890;28;20041;-63
2022/11/12 11:27:13;;;;;;;6.13;3.85;;;;;;;;;;4986514;28;20040;-63
2022/11/12 11:29:46;;;;;;;6.88;4.10;;;;;;;;;;4976942;28;20039;-64
2022/11/12 11:33:06;;;;;;;7.40;4.10;;;;;;;;;;4984863;28;20042;-64
2022/11/12 11:35:45;;;;;;;7.55;4.10;;;;;;;;;;4952443;29;20050;-64
2022/11/12 11:38:30;;;;;;;6.22;4.25;;;;;;;;;;4986636;28;20061;-64
2022/11/12 11:41:17;;;;;;;8.18;4.05;;;;;;;;;;4994261;28;20077;-63
2022/11/12 11:44:20;;;;;;;7.45;4.00;;;;;;;;;;4975767;28;20130;-63
2022/11/12 11:47:01;;;;;;;6.65;4.40;;;;;;;;;;4986192;28;20049;-63
2022/11/12 11:50:11;;;;;;;6.30;4.15;;;;;;;;;;4982565;28;20083;-63
2022/11/12 11:52:43;;;;;;;;;;;;;;;;;;4985005;28;20538;-62
2022/11/12 11:55:43;;;;;;;7.18;5.13;;;;;;;;;;4973547;28;20378;-63
2022/11/12 11:58:36;;;;;;;10.32;6.07;;;;;;;;;;4964638;28;20073;-64
2022/11/12 12:01:18;;;;;;;7.78;6.05;;;;;;;;;;4973488;28;20109;-64
2022/11/12 12:04:20;;;;;;;9.45;6.55;;;;;;;;;;4978827;28;20113;-64
2022/11/12 12:07:03;;;;;;;9.60;6.80;;;;;;;;;;4988534;28;20070;-63
2022/11/12 12:09:29;;;;;;;9.65;6.70;;;;;;;;;;4991811;28;20214;-64
2022/11/12 12:12:14;;;;;;;10.43;6.30;;;;;;;;;;4976981;28;20467;-64
2022/11/12 12:14:55;;;;;;;9.13;6.63;;;;;;;;;;4979005;28;20042;-64
2022/11/12 12:17:52;;;;;;;8.82;6.22;;;;;;;;;;4982970;28;20116;-63
2022/11/12 12:20:33;;;;;;;9.90;6.70;;;;;;;;;;4971576;28;20034;-63
2022/11/12 12:23:04;;;;;;;10.80;6.80;;;;;;;;;;4986046;28;20026;-63
2022/11/12 12:25:40;;;;;;;9.82;6.65;;;;;;;;;;4991204;28;20089;-63
2022/11/12 12:28:11;;;;;;;8.65;6.07;;;;;;;;;;4991668;28;20386;-64
2022/11/12 12:30:42;;;;;;;8.10;5.85;;;;;;;;;;4974040;28;20105;-63
2022/11/12 12:33:26;;;;;;;8.18;5.88;;;;;;;;;;4973093;28;20069;-63
2022/11/12 12:35:57;;;;;;;8.00;5.55;;;;;;;;;;4988085;28;20106;-63
2022/11/12 12:38:42;;;;;;;7.68;5.55;;;;;;;;;;4972134;28;20042;-64
2022/11/12 12:41:18;;;;;;;9.00;5.45;;;;;;;;;;4973164;28;20046;-64
2022/11/12 12:43:57;;;;;;;7.53;5.47;;;;;;;;;;4972480;28;20132;-64
2022/11/12 12:46:26;;;;;;;6.90;5.38;;;;;;;;;;4972310;28;20058;-63
2022/11/12 12:48:54;;;;;;;8.20;5.63;;;;;;;;;;4976488;28;20177;-64
2022/11/12 12:51:21;;;;;;;9.25;5.97;;;;;;;;;;4990481;28;20743;-63
2022/11/12 12:53:46;;;;;;;9.50;5.93;;;;;;;;;;4991537;28;20033;-63
2022/11/12 12:56:12;;;;;;;9.10;6.10;;;;;;;;;;4991957;28;20030;-63
2022/11/12 12:58:47;;;;;;;9.93;5.68;;;;;;;;;;4977811;28;20127;-63
2022/11/12 13:01:18;;;;;;;9.52;5.72;;;;;;;;;;4987703;28;20471;-63
2022/11/12 13:03:51;;;;;;;8.77;5.93;;;;;;;;;;4988804;28;20391;-63
2022/11/12 13:06:22;;;;;;;10.45;5.40;;;;;;;;;;4990492;28;20046;-63
2022/11/12 13:09:18;;;;;;;8.00;5.05;;;;;;;;;;4973066;28;20033;-63
2022/11/12 13:14:34;;;;;;;9.32;5.72;;;;;;;;;;4990919;28;20093;-63
2022/11/12 13:17:05;;;;;;;10.32;6.03;;;;;;;;;;4998583;28;20495;-63
2022/11/12 13:19:53;;;;;;;11.65;6.07;;;;;;;;;;4991428;28;20225;-63
2022/11/12 13:22:18;;;;;;;9.15;6.13;;;;;;;;;;4990556;28;20062;-63
2022/11/12 13:25:04;;;;;;;9.10;6.13;;;;;;;;;;4992208;28;20542;-63
2022/11/12 13:27:39;;;;;;;8.98;6.20;;;;;;;;;;4977877;28;20114;-63
2022/11/12 13:30:09;;;;;;;11.73;7.15;;;;;;;;;;4975771;28;20472;-63
2022/11/12 13:32:36;;;;;;;15.75;7.28;;;;;;;;;;4976214;28;20042;-63
2022/11/12 13:35:10;;;;;;;9.95;6.30;;;;;;;;;;4972489;28;20488;-63
2022/11/12 13:37:48;;;;;;;11.52;6.07;;;;;;;;;;4982270;28;20045;-63
2022/11/12 13:40:17;;;;;;;11.35;6.22;;;;;;;;;;4991313;28;20050;-63
2022/11/12 13:42:49;;;;;;;10.95;7.68;;;;;;;;;;4990630;28;20053;-64
2022/11/12 13:45:22;;;;;;;13.85;9.15;;;;;;;;;;5002456;28;20080;-63
2022/11/12 13:47:47;;;;;;;12.52;7.47;;;;;;;;;;4993272;28;20383;-63
2022/11/12 13:50:18;;;;;;;11.07;7.10;;;;;;;;;;4985429;28;20026;-64
2022/11/12 13:52:44;;;;;;;9.18;7.55;;;;;;;;;;4997788;28;20025;-64
2022/11/12 13:55:20;;;;;;;10.43;7.30;;;;;;;;;;4987500;28;20113;-63
2022/11/12 13:57:50;;;;;;;10.52;7.13;;;;;;;;;;4997402;28;20106;-64
2022/11/12 14:00:15;;;;;;;9.40;6.50;;;;;;;;;;4986830;28;20049;-63
2022/11/12 14:02:45;;;;;;;11.45;6.88;;;;;;;;;;4995415;28;20042;-63
2022/11/12 14:05:16;;;;;;;9.52;6.30;;;;;;;;;;4993965;28;20022;-63
2022/11/12 14:07:50;;;;;;;9.18;6.00;;;;;;;;;;4987019;28;20467;-63
2022/11/12 14:10:36;;;;;;;10.52;6.32;;;;;;;;;;4986311;28;20110;-63
2022/11/12 14:13:46;;;;;;;8.45;5.82;;;;;;;;;;4993823;28;20406;-63
2022/11/12 14:16:18;;;;;;;8.65;6.13;;;;;;;;;;4987671;28;20137;-66
2022/11/12 14:19:25;;;;;;;9.15;5.70;;;;;;;;;;4994529;28;20049;-66
2022/11/12 14:22:09;;;;;;;12.98;5.80;;;;;;;;;;4982727;28;20062;-63
2022/11/12 14:24:35;;;;;;;9.70;5.47;;;;;;;;;;4991305;28;20113;-64
2022/11/12 14:27:00;;;;;;;18.25;6.00;;;;;;;;;;4987169;28;20449;-57
2022/11/12 14:29:25;;;;;;;10.32;5.72;;;;;;;;;;4983953;28;20042;-65
2022/11/12 14:32:04;;;;;;;9.40;5.35;;;;;;;;;;4984047;28;20026;-66
2022/11/12 14:34:32;;;;;;;7.88;5.82;;;;;;;;;;4994140;28;20034;-65
2022/11/12 14:36:58;;;;;;;13.20;6.00;;;;;;;;;;4995371;28;20037;-65
2022/11/12 14:39:25;;;;;;;8.27;5.50;;;;;;;;;;4993441;28;20034;-65
2022/11/12 14:41:51;;;;;;;9.68;5.85;;;;;;;;;;4995096;28;20031;-65
2022/11/12 14:44:26;;;;;;;9.15;5.70;;;;;;;;;;4994293;28;20456;-65
2022/11/12 14:46:54;;;;;;;8.73;5.32;;;;;;;;;;4994963;28;20575;-65
2022/11/12 14:49:40;;;;;;;6.93;4.50;;;;;;;;;;4994283;28;20027;-65
2022/11/12 14:52:09;;;;;;;7.32;4.80;;;;;;;;;;4995098;28;20026;-65
2022/11/12 14:54:47;;;;;;;7.38;4.30;;;;;;;;;;4993046;28;20041;-65
2022/11/12 14:57:39;;;;;;;7.13;4.90;;;;;;;;;;4974839;28;20503;-65
2022/11/12 15:00:36;;;;;;;7.60;5.20;;;;;;;;;;4974905;28;20045;-65
2022/11/12 15:03:02;;;;;;;9.52;5.32;;;;;;;;;;4974683;28;20532;-65
2022/11/12 15:05:28;;;;;;;9.20;5.25;;;;;;;;;;4985695;28;20484;-64
2022/11/12 15:07:57;;;;;;;8.23;5.07;;;;;;;;;;4994089;28;20032;-64
2022/11/12 15:10:29;;;;;;;7.55;5.03;;;;;;;;;;4993563;28;20069;-64
2022/11/12 15:13:08;;;;;;;8.13;4.88;;;;;;;;;;4993492;28;20085;-65
2022/11/12 15:15:37;;;;;;;8.02;5.45;;;;;;;;;;4993362;28;20539;-65
2022/11/12 15:18:06;;;;;;;8.38;5.50;;;;;;;;;;4994326;28;20077;-64
2022/11/12 15:20:31;;;;;;;7.97;5.35;;;;;;;;;;4993100;28;20046;-64
2022/11/12 15:22:57;;;;;;;9.00;5.57;;;;;;;;;;4979297;28;20117;-65